createdAt,value
2022-10-31T00:02:12.751Z,99061.65
2022-10-31T00:07:14.989Z,99060.59
2022-10-31T00:12:21.146Z,99063.32
2022-10-31T00:17:22.949Z,99066.46
2022-10-31T00:22:26.013Z,99064.67
2022-10-31T00:27:27.864Z,99063.90
2022-10-31T00:32:32.573Z,99062.51
2022-10-31T00:37:34.443Z,99062.73
2022-10-31T00:42:36.275Z,99067.25
2022-10-31T00:47:42.503Z,99068.95
2022-10-31T00:52:44.280Z,99064.68
2022-10-31T00:57:49.426Z,99060.45
2022-10-31T01:02:51.358Z,99061.91
2022-10-31T01:07:53.182Z,99061.55
2022-10-31T01:12:54.960Z,99061.55
2022-10-31T01:17:58.076Z,99063.51
2022-10-31T01:23:00.158Z,99069.89
2022-10-31T01:28:02.229Z,99069.98
2022-10-31T01:33:04.519Z,99069.33
2022-10-31T01:38:06.392Z,99071.10
2022-10-31T01:43:14.671Z,99067.00
2022-10-31T01:48:20.520Z,99063.30
2022-10-31T01:53:26.829Z,99059.42
2022-10-31T01:58:31.811Z,99055.52
2022-10-31T02:03:34.214Z,99057.16
2022-10-31T02:08:37.529Z,99066.48
2022-10-31T02:13:39.615Z,99071.77
2022-10-31T02:18:42.208Z,99075.02
2022-10-31T02:23:54.856Z,99074.98
2022-10-31T02:29:07.968Z,99073.69
2022-10-31T02:34:22.036Z,99072.61
2022-10-31T02:39:36.303Z,99075.06
2022-10-31T02:44:59.584Z,99073.79
2022-10-31T02:50:13.739Z,99069.73
2022-10-31T02:55:28.120Z,99073.28
2022-10-31T03:00:55.149Z,99073.59
2022-10-31T03:06:22.250Z,99074.01
2022-10-31T03:11:32.733Z,99073.88
2022-10-31T03:16:48.946Z,99079.61
2022-10-31T03:21:58.793Z,99090.52
2022-10-31T03:27:03.052Z,99094.95
2022-10-31T03:32:24.579Z,99094.64
2022-10-31T03:37:30.873Z,99097.86
2022-10-31T03:42:38.574Z,99102.86
2022-10-31T03:47:42.593Z,99103.68
2022-10-31T03:52:52.979Z,99108.66
2022-10-31T03:58:06.250Z,99110.25
2022-10-31T04:03:16.949Z,99112.40
2022-10-31T04:08:25.521Z,99113.25
2022-10-31T04:13:32.641Z,99114.63
2022-10-31T04:18:39.130Z,99116.84
2022-10-31T04:23:41.004Z,99120.33
2022-10-31T04:28:49.232Z,99124.59
2022-10-31T04:33:51.210Z,99124.39
2022-10-31T04:38:53.599Z,99121.90
2022-10-31T04:44:14.323Z,99124.76
2022-10-31T04:49:16.298Z,99125.27
2022-10-31T04:54:37.638Z,99129.15
2022-10-31T04:59:42.481Z,99127.73
2022-10-31T05:04:46.100Z,99121.39
2022-10-31T05:09:48.079Z,99117.97
2022-10-31T05:14:49.956Z,99121.94
2022-10-31T05:20:23.369Z,99123.38
2022-10-31T05:25:48.416Z,99128.23
2022-10-31T05:30:50.990Z,99133.44
2022-10-31T05:35:53.275Z,99132.56
2022-10-31T05:41:13.990Z,99137.77
2022-10-31T05:46:19.717Z,99144.98
2022-10-31T05:51:40.585Z,99150.80
2022-10-31T05:56:44.305Z,99157.08
2022-10-31T06:01:46.421Z,99161.00
2022-10-31T06:07:01.558Z,99165.52
2022-10-31T06:12:03.778Z,99166.80
2022-10-31T06:17:36.054Z,99175.29
2022-10-31T06:22:37.929Z,99178.11
2022-10-31T06:27:40.859Z,99181.17
2022-10-31T06:32:47.338Z,99185.27
2022-10-31T06:37:54.305Z,99189.92
2022-10-31T06:43:04.607Z,99193.23
2022-10-31T06:48:22.831Z,99191.98
2022-10-31T06:53:50.936Z,99196.86
2022-10-31T06:58:53.125Z,99202.39
2022-10-31T07:04:05.132Z,99207.89
2022-10-31T07:09:09.571Z,99211.59
2022-10-31T07:14:11.451Z,99213.27
2022-10-31T07:19:13.330Z,99211.39
2022-10-31T07:24:15.720Z,99212.80
2022-10-31T07:29:17.472Z,99216.59
2022-10-31T07:34:19.814Z,99219.21
2022-10-31T07:39:40.484Z,99217.09
2022-10-31T07:44:42.624Z,99211.44
2022-10-31T07:50:03.401Z,99212.80
2022-10-31T07:55:28.953Z,99214.34
2022-10-31T08:00:35.328Z,99217.98
2022-10-31T08:05:38.041Z,99218.92
2022-10-31T08:11:02.036Z,99216.52
2022-10-31T08:16:08.601Z,99219.90
2022-10-31T08:21:15.399Z,99222.78
2022-10-31T08:26:17.782Z,99220.73
2022-10-31T08:31:20.134Z,99216.21
2022-10-31T08:36:22.339Z,99222.25
2022-10-31T08:41:26.799Z,99221.29
2022-10-31T08:46:29.694Z,99224.92
2022-10-31T08:51:31.671Z,99224.27
2022-10-31T08:56:33.630Z,99216.94
2022-10-31T09:01:36.000Z,99214.20
2022-10-31T09:06:50.484Z,99219.73
2022-10-31T09:12:03.733Z,99223.33
2022-10-31T09:17:47.423Z,99224.79
2022-10-31T09:23:06.837Z,99225.55
2022-10-31T09:28:13.189Z,99228.95
2022-10-31T09:33:15.406Z,99227.43
2022-10-31T09:38:22.060Z,99224.80
2022-10-31T09:43:34.074Z,99228.23
2022-10-31T09:49:03.905Z,99226.36
2022-10-31T09:54:38.244Z,99224.59
2022-10-31T09:59:44.459Z,99220.52
2022-10-31T10:05:07.497Z,99221.31
2022-10-31T10:10:22.787Z,99222.98
2022-10-31T10:16:16.991Z,99217.83
2022-10-31T10:21:33.919Z,99215.25
2022-10-31T10:26:39.400Z,99216.15
2022-10-31T10:31:43.799Z,99208.23
2022-10-31T10:36:58.996Z,99204.24
2022-10-31T10:42:20.242Z,99201.94
2022-10-31T10:47:41.390Z,99202.98
2022-10-31T10:52:50.896Z,99199.55
2022-10-31T10:57:56.810Z,99197.02
2022-10-31T11:02:58.809Z,99195.37
2022-10-31T11:08:00.617Z,99197.08
2022-10-31T11:13:08.421Z,99193.30
2022-10-31T11:18:22.638Z,99187.31
2022-10-31T11:23:26.576Z,99184.40
2022-10-31T11:28:36.181Z,99183.73
2022-10-31T11:33:54.588Z,99181.52
2022-10-31T11:38:56.872Z,99177.36
2022-10-31T11:44:03.361Z,99176.40
2022-10-31T11:49:12.410Z,99176.67
2022-10-31T11:54:30.052Z,99174.90
2022-10-31T11:59:33.568Z,99168.98
2022-10-31T12:04:44.578Z,99167.24
2022-10-31T12:09:46.419Z,99156.98
2022-10-31T12:15:04.086Z,99155.55
2022-10-31T12:20:12.231Z,99153.29
2022-10-31T12:25:25.350Z,99153.19
2022-10-31T12:30:40.137Z,99150.46
2022-10-31T12:35:47.706Z,99152.27
2022-10-31T12:41:06.682Z,99147.48
2022-10-31T12:46:41.171Z,99141.75
2022-10-31T12:51:52.680Z,99136.31
2022-10-31T12:57:03.756Z,99137.59
2022-10-31T13:02:21.086Z,99133.31
2022-10-31T13:07:32.190Z,99127.46
2022-10-31T13:12:37.527Z,99127.08
2022-10-31T13:17:58.685Z,99131.05
2022-10-31T13:23:23.870Z,99124.90
2022-10-31T13:28:58.534Z,99127.42
2022-10-31T13:34:10.208Z,99129.66
2022-10-31T13:39:31.398Z,99126.02
2022-10-31T13:44:38.796Z,99123.70
2022-10-31T13:49:40.982Z,99126.16
2022-10-31T13:54:56.839Z,99127.56
2022-10-31T14:00:22.310Z,99127.05
2022-10-31T14:05:34.530Z,99125.44
2022-10-31T14:10:39.800Z,99125.91
2022-10-31T14:15:53.447Z,99122.85
2022-10-31T14:20:55.416Z,99120.71
2022-10-31T14:26:16.024Z,99121.05
2022-10-31T14:31:44.479Z,99113.58
2022-10-31T14:37:15.639Z,99114.32
2022-10-31T14:42:34.270Z,99109.98
2022-10-31T14:47:54.786Z,99106.64
2022-10-31T14:52:58.972Z,99102.82
2022-10-31T14:58:05.682Z,99097.50
2022-10-31T15:03:33.608Z,99094.09
2022-10-31T15:08:50.354Z,99094.05
2022-10-31T15:13:53.747Z,99092.86
2022-10-31T15:19:08.617Z,99092.88
2022-10-31T15:24:19.452Z,99090.48
2022-10-31T15:29:27.008Z,99086.55
2022-10-31T15:34:31.870Z,99090.20
2022-10-31T15:39:34.593Z,99088.49
2022-10-31T15:44:41.556Z,99083.27
2022-10-31T15:49:47.546Z,99090.09
2022-10-31T15:54:55.455Z,99093.66
2022-10-31T15:59:57.938Z,99093.22
2022-10-31T16:05:02.281Z,99094.70
2022-10-31T16:10:05.436Z,99094.15
2022-10-31T16:15:15.967Z,99098.23
2022-10-31T16:20:30.081Z,99104.12
2022-10-31T16:25:39.205Z,99108.40
2022-10-31T16:30:48.526Z,99109.23
2022-10-31T16:35:56.147Z,99111.48
2022-10-31T16:41:08.651Z,99113.02
2022-10-31T16:46:19.658Z,99115.91
2022-10-31T16:51:22.109Z,99116.26
2022-10-31T16:56:33.345Z,99115.02
2022-10-31T17:01:36.297Z,99119.72
2022-10-31T17:06:38.232Z,99120.55
2022-10-31T17:11:50.191Z,99118.36
2022-10-31T17:16:52.021Z,99116.63
2022-10-31T17:21:53.875Z,99117.33
2022-10-31T17:26:55.769Z,99116.20
2022-10-31T17:31:57.644Z,99113.99
2022-10-31T17:36:59.627Z,99115.08
2022-10-31T17:42:01.502Z,99115.17
2022-10-31T17:47:03.380Z,99118.11
2022-10-31T17:52:05.878Z,99119.13
2022-10-31T17:57:07.869Z,99117.29
2022-10-31T18:02:11.152Z,99117.86
2022-10-31T18:07:13.267Z,99116.91
2022-10-31T18:12:15.852Z,99114.15
2022-10-31T18:17:17.923Z,99113.61
2022-10-31T18:22:19.899Z,99115.56
2022-10-31T18:27:21.780Z,99114.27
2022-10-31T18:32:23.656Z,99106.22
2022-10-31T18:37:25.536Z,99098.41
2022-10-31T18:42:27.361Z,99099.30
2022-10-31T18:47:29.285Z,99100.09
2022-10-31T18:52:32.088Z,99097.05
2022-10-31T18:57:33.964Z,99098.50
2022-10-31T19:02:35.900Z,99093.83
2022-10-31T19:07:37.819Z,99086.64
2022-10-31T19:12:39.697Z,99087.61
2022-10-31T19:17:41.575Z,99088.22
2022-10-31T19:22:43.760Z,99087.95
2022-10-31T19:27:45.643Z,99087.39
2022-10-31T19:32:48.128Z,99084.48
2022-10-31T19:37:50.010Z,99087.11
2022-10-31T19:42:51.878Z,99086.58
2022-10-31T19:47:53.659Z,99086.16
2022-10-31T19:52:55.538Z,99084.31
2022-10-31T19:58:01.727Z,99081.94
2022-10-31T20:03:05.090Z,99083.76
2022-10-31T20:08:07.690Z,99084.77
2022-10-31T20:13:10.931Z,99080.38
2022-10-31T20:18:12.846Z,99071.80
2022-10-31T20:23:14.837Z,99065.40
2022-10-31T20:28:17.313Z,99063.58
2022-10-31T20:33:19.361Z,99066.59
2022-10-31T20:38:21.163Z,99070.48
2022-10-31T20:43:23.113Z,99066.21
2022-10-31T20:48:25.913Z,99065.19
2022-10-31T20:53:28.611Z,99061.20
2022-10-31T20:58:31.104Z,99051.62
2022-10-31T21:03:32.967Z,99051.02
2022-10-31T21:08:35.469Z,99044.08
2022-10-31T21:13:42.464Z,99043.73
2022-10-31T21:18:46.236Z,99038.64
2022-10-31T21:23:53.188Z,99039.92
2022-10-31T21:28:58.445Z,99037.93
2022-10-31T21:34:00.426Z,99036.02
2022-10-31T21:39:03.218Z,99038.48
2022-10-31T21:44:05.510Z,99031.51
2022-10-31T21:49:07.488Z,99025.87
2022-10-31T21:54:28.106Z,99023.70
2022-10-31T21:59:30.864Z,99015.41
2022-10-31T22:04:33.498Z,99008.04
2022-10-31T22:09:41.519Z,99005.77
2022-10-31T22:14:44.310Z,98999.91
2022-10-31T22:19:46.194Z,98998.41
2022-10-31T22:24:48.174Z,98997.36
2022-10-31T22:29:55.530Z,98988.79
2022-10-31T22:34:58.381Z,98980.39
2022-10-31T22:40:00.266Z,98980.54
2022-10-31T22:45:03.061Z,98979.89
2022-10-31T22:50:06.119Z,98972.38
2022-10-31T22:55:09.324Z,98976.89
2022-10-31T23:00:12.535Z,98979.60
2022-10-31T23:05:14.457Z,98979.34
2022-10-31T23:10:16.312Z,98973.67
2022-10-31T23:15:18.215Z,98967.27
2022-10-31T23:20:19.970Z,98964.51
2022-10-31T23:25:40.666Z,98971.99
2022-10-31T23:30:45.660Z,98979.25
2022-10-31T23:35:47.434Z,98979.63
2022-10-31T23:40:49.308Z,98976.00
2022-10-31T23:45:51.187Z,98979.84
2022-10-31T23:50:53.062Z,98973.33
2022-10-31T23:55:55.610Z,98968.14
